createdAt,value
2023-12-15T00:01:47.904Z,13.63
2023-12-15T00:04:34.554Z,13.63
2023-12-15T00:07:21.120Z,13.20
2023-12-15T00:10:10.314Z,13.30
2023-12-15T00:12:57.022Z,13.87
2023-12-15T00:15:43.559Z,12.73
2023-12-15T00:18:30.146Z,12.90
2023-12-15T00:21:17.194Z,13.13
2023-12-15T00:24:05.686Z,13.93
2023-12-15T00:26:53.480Z,13.97
2023-12-15T00:29:40.258Z,13.13
2023-12-15T00:32:26.853Z,13.33
2023-12-15T00:35:13.899Z,12.57
2023-12-15T00:38:00.464Z,13.77
2023-12-15T00:40:46.954Z,13.00
2023-12-15T00:43:34.833Z,12.43
2023-12-15T00:46:21.302Z,13.30
2023-12-15T00:49:07.924Z,12.13
2023-12-15T00:51:54.313Z,12.17
2023-12-15T00:54:40.857Z,12.47
2023-12-15T00:57:27.260Z,13.13
2023-12-15T01:00:16.307Z,12.57
2023-12-15T01:03:03.058Z,13.00
2023-12-15T01:05:51.645Z,12.53
2023-12-15T01:08:38.726Z,12.83
2023-12-15T01:11:25.128Z,12.13
2023-12-15T01:14:11.707Z,13.00
2023-12-15T01:16:59.545Z,11.57
2023-12-15T01:19:46.091Z,12.57
2023-12-15T01:22:32.760Z,12.83
2023-12-15T01:25:19.425Z,11.80
2023-12-15T01:28:06.060Z,11.47
2023-12-15T01:30:53.128Z,12.07
2023-12-15T01:33:41.396Z,13.17
2023-12-15T01:36:29.415Z,11.83
2023-12-15T01:39:16.217Z,11.53
2023-12-15T01:42:02.870Z,12.10
2023-12-15T01:44:49.406Z,11.30
2023-12-15T01:47:36.778Z,11.83
2023-12-15T01:50:25.207Z,11.73
2023-12-15T01:53:11.677Z,12.83
2023-12-15T01:55:58.047Z,11.77
2023-12-15T01:58:44.677Z,11.83
2023-12-15T02:01:31.612Z,12.90
2023-12-15T02:04:18.549Z,11.97
2023-12-15T02:07:06.555Z,11.87
2023-12-15T02:09:53.123Z,12.03
2023-12-15T02:12:39.547Z,11.90
2023-12-15T02:15:26.502Z,12.43
2023-12-15T02:18:13.667Z,12.30
2023-12-15T02:21:00.321Z,12.20
2023-12-15T02:23:48.206Z,12.60
2023-12-15T02:26:34.927Z,12.60
2023-12-15T02:29:21.770Z,13.30
2023-12-15T02:32:08.743Z,13.37
2023-12-15T02:34:55.849Z,13.50
2023-12-15T02:37:42.502Z,12.90
2023-12-15T02:40:30.227Z,13.60
2023-12-15T02:43:16.763Z,13.90
2023-12-15T02:46:03.351Z,14.13
2023-12-15T02:48:49.917Z,14.70
2023-12-15T02:51:36.984Z,14.23
2023-12-15T02:54:23.552Z,14.13
2023-12-15T02:57:11.427Z,15.30
2023-12-15T02:59:58.338Z,14.90
2023-12-15T03:02:44.992Z,15.70
2023-12-15T03:05:31.623Z,15.97
2023-12-15T03:08:18.492Z,16.50
2023-12-15T03:11:05.572Z,17.13
2023-12-15T03:13:53.599Z,15.33
2023-12-15T03:16:40.227Z,17.10
2023-12-15T03:19:26.841Z,16.10
2023-12-15T03:22:14.596Z,16.80
2023-12-15T03:25:01.169Z,16.20
2023-12-15T03:27:47.738Z,17.23
2023-12-15T03:30:35.692Z,17.70
2023-12-15T03:33:25.474Z,17.73
2023-12-15T03:36:11.837Z,18.00
2023-12-15T03:38:58.335Z,17.27
2023-12-15T03:41:44.969Z,18.80
2023-12-15T03:44:31.538Z,17.80
2023-12-15T03:47:19.367Z,19.10
2023-12-15T03:50:07.136Z,18.87
2023-12-15T03:52:53.929Z,20.37
2023-12-15T03:55:40.758Z,17.47
2023-12-15T03:58:27.380Z,18.07
2023-12-15T04:01:13.818Z,18.83
2023-12-15T04:04:01.797Z,20.07
2023-12-15T04:06:48.537Z,21.40
2023-12-15T04:09:35.008Z,20.40
2023-12-15T04:12:21.541Z,20.43
2023-12-15T04:15:09.853Z,20.13
2023-12-15T04:17:56.847Z,20.10
2023-12-15T04:20:45.296Z,19.70
2023-12-15T04:23:31.904Z,19.37
2023-12-15T04:26:19.359Z,18.97
2023-12-15T04:29:05.831Z,18.37
2023-12-15T04:31:52.179Z,19.07
2023-12-15T04:34:38.944Z,18.80
2023-12-15T04:37:27.105Z,18.90
2023-12-15T04:40:15.353Z,18.23
2023-12-15T04:43:02.281Z,19.13
2023-12-15T04:45:48.720Z,19.10
2023-12-15T04:48:35.422Z,19.47
2023-12-15T04:51:22.461Z,18.77
2023-12-15T04:54:10.320Z,19.37
2023-12-15T04:56:57.144Z,19.23
2023-12-15T04:59:43.720Z,19.40
2023-12-15T05:02:30.567Z,18.70
2023-12-15T05:05:17.762Z,19.67
2023-12-15T05:08:05.384Z,19.63
2023-12-15T05:10:53.533Z,19.73
2023-12-15T05:13:40.319Z,18.30
2023-12-15T05:16:26.904Z,19.30
2023-12-15T05:19:13.695Z,19.33
2023-12-15T05:22:00.210Z,17.60
2023-12-15T05:24:46.885Z,18.60
2023-12-15T05:27:34.995Z,19.13
2023-12-15T05:30:21.934Z,16.13
2023-12-15T05:33:08.745Z,17.30
2023-12-15T05:35:55.825Z,17.07
2023-12-15T05:38:42.541Z,17.23
2023-12-15T05:41:29.202Z,16.63
2023-12-15T05:44:17.374Z,16.03
2023-12-15T05:47:04.214Z,17.20
2023-12-15T05:49:51.135Z,15.97
2023-12-15T05:52:37.552Z,15.97
2023-12-15T05:55:24.119Z,15.77
2023-12-15T05:58:10.591Z,14.80
2023-12-15T06:00:58.415Z,14.47
2023-12-15T06:03:44.974Z,15.93
2023-12-15T06:06:31.467Z,14.43
2023-12-15T06:09:18.413Z,14.33
2023-12-15T06:12:05.419Z,14.23
2023-12-15T06:14:52.041Z,15.13
2023-12-15T06:17:40.251Z,13.83
2023-12-15T06:20:27.563Z,15.37
2023-12-15T06:23:14.242Z,15.10
2023-12-15T06:26:00.733Z,14.70
2023-12-15T06:28:47.256Z,15.27
2023-12-15T06:31:33.786Z,13.63
2023-12-15T06:34:21.863Z,13.50
2023-12-15T06:37:08.546Z,13.30
2023-12-15T06:39:56.799Z,13.87
2023-12-15T06:42:43.780Z,14.73
2023-12-15T06:45:30.240Z,13.47
2023-12-15T06:48:16.741Z,14.63
2023-12-15T06:51:05.338Z,15.17
2023-12-15T06:53:52.147Z,14.47
2023-12-15T06:56:40.054Z,15.50
2023-12-15T06:59:26.889Z,14.30
2023-12-15T07:02:13.458Z,15.37
2023-12-15T07:05:00.054Z,15.27
2023-12-15T07:07:48.492Z,16.33
2023-12-15T07:10:35.189Z,15.73
2023-12-15T07:13:22.256Z,15.30
2023-12-15T07:16:11.414Z,16.63
2023-12-15T07:18:58.189Z,16.93
2023-12-15T07:21:44.939Z,15.93
2023-12-15T07:24:32.968Z,16.90
2023-12-15T07:27:19.754Z,17.43
2023-12-15T07:30:07.719Z,17.63
2023-12-15T07:32:54.242Z,17.80
2023-12-15T07:35:41.234Z,17.90
2023-12-15T07:38:27.818Z,18.30
2023-12-15T07:41:15.626Z,19.73
2023-12-15T07:44:02.414Z,20.03
2023-12-15T07:46:49.070Z,18.90
2023-12-15T07:49:37.499Z,18.93
2023-12-15T07:52:23.986Z,18.87
2023-12-15T07:55:10.756Z,19.27
2023-12-15T07:57:58.930Z,18.20
2023-12-15T08:00:45.710Z,19.23
2023-12-15T08:03:32.707Z,19.67
2023-12-15T08:06:20.015Z,19.77
2023-12-15T08:09:06.452Z,18.20
2023-12-15T08:11:52.902Z,18.80
2023-12-15T08:14:41.023Z,18.47
2023-12-15T08:17:28.016Z,18.57
2023-12-15T08:20:15.044Z,18.27
2023-12-15T08:23:02.043Z,19.17
2023-12-15T08:25:48.635Z,18.90
2023-12-15T08:28:35.101Z,18.60
2023-12-15T08:31:23.286Z,19.50
2023-12-15T08:34:09.854Z,19.57
2023-12-15T08:36:56.438Z,17.90
2023-12-15T08:39:42.866Z,18.93
2023-12-15T08:42:29.385Z,18.83
2023-12-15T08:45:16.007Z,17.37
2023-12-15T08:48:04.729Z,18.73
2023-12-15T08:50:51.491Z,18.33
2023-12-15T08:53:38.129Z,19.13
2023-12-15T08:56:24.686Z,18.50
2023-12-15T08:59:11.720Z,19.77
2023-12-15T09:01:59.128Z,18.73
2023-12-15T09:04:55.766Z,19.67
2023-12-15T09:07:49.187Z,19.57
2023-12-15T09:10:42.428Z,19.97
2023-12-15T09:13:29.324Z,19.20
2023-12-15T09:16:15.984Z,19.30
2023-12-15T09:19:03.000Z,20.67
2023-12-15T09:21:51.274Z,20.87
2023-12-15T09:24:38.045Z,20.17
2023-12-15T09:27:24.564Z,19.37
2023-12-15T09:30:12.030Z,19.63
2023-12-15T09:32:58.760Z,19.63
2023-12-15T09:35:45.724Z,18.60
2023-12-15T09:38:33.584Z,19.57
2023-12-15T09:41:20.112Z,19.93
2023-12-15T09:44:07.037Z,19.73
2023-12-15T09:46:53.672Z,21.00
2023-12-15T09:49:41.604Z,19.80
2023-12-15T09:52:28.711Z,18.67
2023-12-15T09:55:16.675Z,19.30
2023-12-15T09:58:03.781Z,19.40
2023-12-15T10:00:50.602Z,18.30
2023-12-15T10:03:37.132Z,19.53
2023-12-15T10:06:24.137Z,17.33
2023-12-15T10:09:14.323Z,19.10
2023-12-15T10:12:02.565Z,18.13
2023-12-15T10:14:49.646Z,18.40
2023-12-15T10:17:36.873Z,18.70
2023-12-15T10:20:23.896Z,17.97
2023-12-15T10:23:10.411Z,17.70
2023-12-15T10:25:57.547Z,18.33
2023-12-15T10:28:45.903Z,18.67
2023-12-15T10:31:32.416Z,17.70
2023-12-15T10:34:19.267Z,17.77
2023-12-15T10:37:06.360Z,18.20
2023-12-15T10:39:53.080Z,15.17
2023-12-15T10:42:42.013Z,15.47
2023-12-15T10:45:30.994Z,15.33
2023-12-15T10:48:18.011Z,15.13
2023-12-15T10:51:06.448Z,15.13
2023-12-15T10:53:54.905Z,15.43
2023-12-15T10:56:41.980Z,15.10
2023-12-15T10:59:29.611Z,15.43
2023-12-15T11:02:19.984Z,15.70
2023-12-15T11:05:10.771Z,13.57
2023-12-15T11:07:57.954Z,13.67
2023-12-15T11:10:44.970Z,12.87
2023-12-15T11:13:59.703Z,13.80
2023-12-15T11:16:47.761Z,13.00
2023-12-15T11:19:35.795Z,14.43
2023-12-15T11:22:23.968Z,12.77
2023-12-15T11:25:19.466Z,11.77
2023-12-15T11:28:09.927Z,11.90
2023-12-15T11:30:57.831Z,11.13
2023-12-15T11:33:45.041Z,11.33
2023-12-15T11:36:43.310Z,11.07
2023-12-15T11:39:29.920Z,11.10
2023-12-15T11:42:17.610Z,11.77
2023-12-15T11:45:07.940Z,12.53
2023-12-15T11:47:55.560Z,12.37
2023-12-15T11:50:43.305Z,10.97
2023-12-15T11:53:33.815Z,11.50
2023-12-15T11:56:21.236Z,12.43
2023-12-15T11:59:08.435Z,11.97
2023-12-15T12:01:54.939Z,12.47
2023-12-15T12:04:45.111Z,12.83
2023-12-15T12:07:31.734Z,12.70
2023-12-15T12:10:19.783Z,13.33
2023-12-15T12:13:06.887Z,12.93
2023-12-15T12:15:54.718Z,13.87
2023-12-15T12:18:41.451Z,13.17
2023-12-15T12:21:28.433Z,17.37
2023-12-15T12:24:15.279Z,13.37
2023-12-15T12:27:03.722Z,16.97
2023-12-15T12:29:50.395Z,16.43
2023-12-15T12:32:37.189Z,39.40
2023-12-15T12:35:24.079Z,15.03
2023-12-15T12:38:10.722Z,22.50
2023-12-15T12:40:57.469Z,18.13
2023-12-15T12:43:45.509Z,16.60
2023-12-15T12:46:33.269Z,17.87
2023-12-15T12:49:20.212Z,16.83
2023-12-15T12:52:07.668Z,17.10
2023-12-15T12:54:54.413Z,16.77
2023-12-15T12:57:40.867Z,18.77
2023-12-15T13:00:28.666Z,17.67
2023-12-15T13:03:15.591Z,15.90
2023-12-15T13:06:02.379Z,15.97
2023-12-15T13:08:49.080Z,15.17
2023-12-15T13:11:36.956Z,16.63
2023-12-15T13:14:24.097Z,15.50
2023-12-15T13:17:12.289Z,15.43
2023-12-15T13:19:59.254Z,15.33
2023-12-15T13:22:48.743Z,15.47
2023-12-15T13:25:36.142Z,15.13
2023-12-15T13:28:25.985Z,14.70
2023-12-15T13:31:12.952Z,15.03
2023-12-15T13:34:01.179Z,13.83
2023-12-15T13:36:48.316Z,14.33
2023-12-15T13:39:35.307Z,13.77
2023-12-15T13:42:21.895Z,14.63
2023-12-15T13:45:09.687Z,13.73
2023-12-15T13:47:56.232Z,13.53
2023-12-15T13:50:44.420Z,12.87
2023-12-15T13:53:31.749Z,14.10
2023-12-15T13:56:18.728Z,14.67
2023-12-15T13:59:05.824Z,13.47
2023-12-15T14:01:53.155Z,15.33
2023-12-15T14:04:39.498Z,14.17
2023-12-15T14:07:27.297Z,14.63
2023-12-15T14:10:16.026Z,14.20
2023-12-15T14:13:04.881Z,13.27
2023-12-15T14:15:51.619Z,13.70
2023-12-15T14:18:39.432Z,13.93
2023-12-15T14:21:26.690Z,13.80
2023-12-15T14:24:18.130Z,17.27
2023-12-15T14:27:05.837Z,22.93
2023-12-15T14:29:52.590Z,15.70
2023-12-15T14:32:40.086Z,13.47
2023-12-15T14:35:27.331Z,13.60
2023-12-15T14:38:14.035Z,14.07
2023-12-15T14:41:04.361Z,13.97
2023-12-15T14:43:51.414Z,13.13
2023-12-15T14:46:38.696Z,14.63
2023-12-15T14:49:25.821Z,13.17
2023-12-15T14:52:12.606Z,13.93
2023-12-15T14:54:59.174Z,13.90
2023-12-15T14:57:47.101Z,12.17
2023-12-15T15:00:33.852Z,14.00
2023-12-15T15:03:20.495Z,12.70
2023-12-15T15:06:07.765Z,12.70
2023-12-15T15:08:54.783Z,12.43
2023-12-15T15:11:41.282Z,14.00
2023-12-15T15:14:29.346Z,16.17
2023-12-15T15:17:16.165Z,13.63
2023-12-15T15:20:04.159Z,12.00
2023-12-15T15:22:51.514Z,14.17
2023-12-15T15:25:38.508Z,13.53
2023-12-15T15:28:25.178Z,13.57
2023-12-15T15:31:17.577Z,13.50
2023-12-15T15:34:04.128Z,14.70
2023-12-15T15:36:51.115Z,14.47
2023-12-15T15:39:38.755Z,13.80
2023-12-15T15:42:25.529Z,15.83
2023-12-15T15:45:12.256Z,14.93
2023-12-15T15:48:02.730Z,14.10
2023-12-15T15:50:50.352Z,14.07
2023-12-15T15:53:36.910Z,12.80
2023-12-15T15:56:23.477Z,14.17
2023-12-15T15:59:09.969Z,12.97
2023-12-15T16:01:56.530Z,13.07
2023-12-15T16:04:45.081Z,13.43
2023-12-15T16:07:32.492Z,13.13
2023-12-15T16:10:19.346Z,11.83
2023-12-15T16:13:05.969Z,12.17
2023-12-15T16:15:52.473Z,12.97
2023-12-15T16:18:39.005Z,13.60
2023-12-15T16:21:27.849Z,14.33
2023-12-15T16:24:14.627Z,13.37
2023-12-15T16:27:01.617Z,13.73
2023-12-15T16:29:48.456Z,15.23
2023-12-15T16:32:35.156Z,14.07
2023-12-15T16:35:21.584Z,14.13
2023-12-15T16:38:09.843Z,12.77
2023-12-15T16:40:56.484Z,14.20
2023-12-15T16:43:45.914Z,14.37
2023-12-15T16:46:32.299Z,14.47
2023-12-15T16:49:19.091Z,15.53
2023-12-15T16:52:06.498Z,14.90
2023-12-15T16:54:54.713Z,19.75
2023-12-15T16:57:42.619Z,16.40
2023-12-15T17:00:29.350Z,19.50
2023-12-15T17:03:15.987Z,17.53
2023-12-15T17:06:04.223Z,17.13
2023-12-15T17:08:51.097Z,16.77
2023-12-15T17:11:39.070Z,15.30
2023-12-15T17:14:25.856Z,15.77
2023-12-15T17:17:12.277Z,17.40
2023-12-15T17:19:59.097Z,17.47
2023-12-15T17:22:45.689Z,18.63
2023-12-15T17:25:32.318Z,16.00
2023-12-15T17:28:20.474Z,15.93
2023-12-15T17:31:07.507Z,15.77
2023-12-15T17:33:54.092Z,15.10
2023-12-15T17:36:41.035Z,16.27
2023-12-15T17:39:27.702Z,15.83
2023-12-15T17:42:16.078Z,16.70
2023-12-15T17:45:04.765Z,17.80
2023-12-15T17:47:51.434Z,17.20
2023-12-15T17:50:39.196Z,16.70
2023-12-15T17:53:26.792Z,16.33
2023-12-15T17:56:13.555Z,18.73
2023-12-15T17:59:00.125Z,17.53
2023-12-15T18:01:48.658Z,16.17
2023-12-15T18:04:35.800Z,18.60
2023-12-15T18:07:23.373Z,16.60
2023-12-15T18:10:10.473Z,15.50
2023-12-15T18:12:57.044Z,14.53
2023-12-15T18:15:43.761Z,12.50
2023-12-15T18:18:32.014Z,13.40
2023-12-15T18:21:19.339Z,13.17
2023-12-15T18:24:06.107Z,13.30
2023-12-15T18:26:52.681Z,10.87
2023-12-15T18:29:39.256Z,11.67
2023-12-15T18:32:25.967Z,12.10
2023-12-15T18:35:14.101Z,15.60
2023-12-15T18:38:00.517Z,12.40
2023-12-15T18:40:48.647Z,10.67
2023-12-15T18:43:35.556Z,11.27
2023-12-15T18:46:22.967Z,9.93
2023-12-15T18:49:09.848Z,11.47
2023-12-15T18:51:58.401Z,10.60
2023-12-15T18:54:45.254Z,10.30
2023-12-15T18:57:39.713Z,11.30
2023-12-15T19:03:12.129Z,9.83
2023-12-15T19:05:59.098Z,9.70
2023-12-15T19:08:46.868Z,9.43
2023-12-15T19:11:34.788Z,9.57
2023-12-15T19:14:21.709Z,10.43
2023-12-15T19:17:09.783Z,9.37
2023-12-15T19:19:56.149Z,9.67
2023-12-15T19:22:44.749Z,9.23
2023-12-15T19:25:32.640Z,9.10
2023-12-15T19:28:19.503Z,9.43
2023-12-15T19:31:06.202Z,9.70
2023-12-15T19:33:56.308Z,9.77
2023-12-15T19:36:43.813Z,9.23
2023-12-15T19:39:31.288Z,10.27
2023-12-15T19:42:19.394Z,9.47
2023-12-15T19:45:06.900Z,9.70
2023-12-15T19:47:53.676Z,9.67
2023-12-15T19:50:40.678Z,10.23
2023-12-15T19:53:27.215Z,9.97
2023-12-15T19:56:22.171Z,9.67
2023-12-15T19:59:11.028Z,11.07
2023-12-15T20:02:03.976Z,10.97
2023-12-15T20:04:51.257Z,11.20
2023-12-15T20:07:38.130Z,11.27
2023-12-15T20:10:25.042Z,10.70
2023-12-15T20:13:11.575Z,9.90
2023-12-15T20:15:59.700Z,11.40
2023-12-15T20:18:47.888Z,9.87
2023-12-15T20:21:34.631Z,12.03
2023-12-15T20:24:21.184Z,13.53
2023-12-15T20:27:11.344Z,10.60
2023-12-15T20:29:57.721Z,12.00
2023-12-15T20:32:45.810Z,10.87
2023-12-15T20:35:32.561Z,12.00
2023-12-15T20:38:20.805Z,11.60
2023-12-15T20:41:10.281Z,10.63
2023-12-15T20:43:57.065Z,9.83
2023-12-15T20:46:44.182Z,9.30
2023-12-15T20:49:32.027Z,11.50
2023-12-15T20:52:19.520Z,12.33
2023-12-15T20:55:12.250Z,11.03
2023-12-15T20:57:59.506Z,10.10
2023-12-15T21:00:46.496Z,10.97
2023-12-15T21:03:33.637Z,9.67
2023-12-15T21:06:21.989Z,10.33
2023-12-15T21:09:08.809Z,9.10
2023-12-15T21:11:55.234Z,9.90
2023-12-15T21:14:42.960Z,9.37
2023-12-15T21:17:30.097Z,10.17
2023-12-15T21:20:20.495Z,8.80
2023-12-15T21:23:08.593Z,8.60
2023-12-15T21:25:54.914Z,8.33
2023-12-15T21:28:42.331Z,9.23
2023-12-15T21:31:29.439Z,8.53
2023-12-15T21:34:16.782Z,8.70
2023-12-15T21:37:03.557Z,8.47
2023-12-15T21:39:51.491Z,8.13
2023-12-15T21:42:38.946Z,8.03
2023-12-15T21:45:26.853Z,8.83
2023-12-15T21:48:13.673Z,8.37
2023-12-15T21:51:00.910Z,8.40
2023-12-15T21:53:47.612Z,8.27
2023-12-15T21:56:35.584Z,8.83
2023-12-15T21:59:23.143Z,8.57
2023-12-15T22:02:10.045Z,8.20
2023-12-15T22:04:56.476Z,8.07
2023-12-15T22:07:42.931Z,7.90
2023-12-15T22:10:30.282Z,8.40
2023-12-15T22:13:18.305Z,8.20
2023-12-15T22:16:05.640Z,8.00
2023-12-15T22:18:52.465Z,8.57
2023-12-15T22:21:39.419Z,8.50
2023-12-15T22:24:26.130Z,7.33
2023-12-15T22:27:12.657Z,8.13
2023-12-15T22:30:00.436Z,8.50
2023-12-15T22:32:47.173Z,7.00
2023-12-15T22:35:33.738Z,7.13
2023-12-15T22:38:20.300Z,7.73
2023-12-15T22:41:06.830Z,6.87
2023-12-15T22:43:53.406Z,7.47
2023-12-15T22:46:43.166Z,7.37
2023-12-15T22:49:30.100Z,6.77
2023-12-15T22:52:17.111Z,8.13
2023-12-15T22:55:04.185Z,7.27
2023-12-15T22:57:53.306Z,7.83
2023-12-15T23:00:40.028Z,7.67
2023-12-15T23:03:29.006Z,6.60
2023-12-15T23:06:15.580Z,6.80
2023-12-15T23:09:02.140Z,7.07
2023-12-15T23:11:48.660Z,6.57
2023-12-15T23:14:37.891Z,7.33
2023-12-15T23:17:27.911Z,6.70
2023-12-15T23:20:17.441Z,6.77
2023-12-15T23:23:04.338Z,6.60
2023-12-15T23:25:52.188Z,7.23
2023-12-15T23:28:39.122Z,6.90
2023-12-15T23:31:25.831Z,6.87
2023-12-15T23:34:12.439Z,6.80
2023-12-15T23:37:00.839Z,6.37
2023-12-15T23:39:47.574Z,6.77
2023-12-15T23:42:34.183Z,5.83
2023-12-15T23:45:20.773Z,6.40
2023-12-15T23:48:08.238Z,6.13
2023-12-15T23:50:55.160Z,6.13
2023-12-15T23:53:43.092Z,5.83
2023-12-15T23:56:29.890Z,6.10
2023-12-15T23:59:16.451Z,6.83
